sensor_id;sensor_type;location;lat;lon;timestamp;P1;durP1;ratioP1;P2;durP2;ratioP2
44588;SDS011;30298;52.562;13.414;2023-05-29T00:02:05;10.75;;;4.47;;
44588;SDS011;30298;52.562;13.414;2023-05-29T00:04:30;8.70;;;4.30;;
44588;SDS011;30298;52.562;13.414;2023-05-29T00:06:55;7.53;;;4.00;;
44588;SDS011;30298;52.562;13.414;2023-05-29T00:09:21;11.10;;;4.40;;
44588;SDS011;30298;52.562;13.414;2023-05-29T00:11:46;8.80;;;4.33;;
44588;SDS011;30298;52.562;13.414;2023-05-29T00:14:15;9.85;;;4.20;;
44588;SDS011;30298;52.562;13.414;2023-05-29T00:16:44;14.90;;;4.43;;
44588;SDS011;30298;52.562;13.414;2023-05-29T00:19:09;12.87;;;5.03;;
44588;SDS011;30298;52.562;13.414;2023-05-29T00:21:34;9.20;;;4.27;;
44588;SDS011;30298;52.562;13.414;2023-05-29T00:24:00;13.57;;;4.88;;
44588;SDS011;30298;52.562;13.414;2023-05-29T00:26:25;12.10;;;4.43;;
44588;SDS011;30298;52.562;13.414;2023-05-29T00:28:51;10.00;;;3.90;;
44588;SDS011;30298;52.562;13.414;2023-05-29T00:31:16;9.03;;;4.67;;
44588;SDS011;30298;52.562;13.414;2023-05-29T00:33:41;8.48;;;4.55;;
44588;SDS011;30298;52.562;13.414;2023-05-29T00:36:07;8.30;;;3.93;;
44588;SDS011;30298;52.562;13.414;2023-05-29T00:38:32;13.25;;;6.07;;
44588;SDS011;30298;52.562;13.414;2023-05-29T00:40:58;11.23;;;4.40;;
44588;SDS011;30298;52.562;13.414;2023-05-29T00:43:24;9.55;;;4.18;;
44588;SDS011;30298;52.562;13.414;2023-05-29T00:45:49;12.37;;;4.90;;
44588;SDS011;30298;52.562;13.414;2023-05-29T00:48:15;9.05;;;4.45;;
44588;SDS011;30298;52.562;13.414;2023-05-29T00:50:40;9.47;;;4.37;;
44588;SDS011;30298;52.562;13.414;2023-05-29T00:55:33;11.32;;;4.53;;
44588;SDS011;30298;52.562;13.414;2023-05-29T00:58:01;12.18;;;4.90;;
44588;SDS011;30298;52.562;13.414;2023-05-29T01:00:26;10.23;;;4.40;;
44588;SDS011;30298;52.562;13.414;2023-05-29T01:02:52;10.80;;;4.60;;
44588;SDS011;30298;52.562;13.414;2023-05-29T01:05:17;10.85;;;4.70;;
44588;SDS011;30298;52.562;13.414;2023-05-29T01:07:44;10.73;;;4.65;;
44588;SDS011;30298;52.562;13.414;2023-05-29T01:10:09;11.52;;;4.80;;
44588;SDS011;30298;52.562;13.414;2023-05-29T01:25:21;14.77;;;4.50;;
44588;SDS011;30298;52.562;13.414;2023-05-29T01:27:48;11.98;;;4.43;;
44588;SDS011;30298;52.562;13.414;2023-05-29T01:30:14;8.05;;;4.43;;
44588;SDS011;30298;52.562;13.414;2023-05-29T01:32:39;13.38;;;4.75;;
44588;SDS011;30298;52.562;13.414;2023-05-29T01:35:06;11.45;;;5.32;;
44588;SDS011;30298;52.562;13.414;2023-05-29T01:37:31;13.48;;;4.63;;
44588;SDS011;30298;52.562;13.414;2023-05-29T01:39:56;10.27;;;4.77;;
44588;SDS011;30298;52.562;13.414;2023-05-29T01:42:22;12.73;;;5.00;;
44588;SDS011;30298;52.562;13.414;2023-05-29T01:44:47;9.55;;;4.93;;
44588;SDS011;30298;52.562;13.414;2023-05-29T01:49:38;11.13;;;4.32;;
44588;SDS011;30298;52.562;13.414;2023-05-29T01:52:04;13.60;;;4.60;;
44588;SDS011;30298;52.562;13.414;2023-05-29T01:54:29;7.65;;;4.18;;
44588;SDS011;30298;52.562;13.414;2023-05-29T01:56:55;12.30;;;4.70;;
44588;SDS011;30298;52.562;13.414;2023-05-29T01:59:20;11.27;;;4.50;;
44588;SDS011;30298;52.562;13.414;2023-05-29T02:01:47;9.45;;;4.57;;
44588;SDS011;30298;52.562;13.414;2023-05-29T02:06:37;13.25;;;4.50;;
44588;SDS011;30298;52.562;13.414;2023-05-29T02:09:03;7.23;;;4.37;;
44588;SDS011;30298;52.562;13.414;2023-05-29T02:11:28;9.37;;;4.53;;
44588;SDS011;30298;52.562;13.414;2023-05-29T02:13:53;13.03;;;4.63;;
44588;SDS011;30298;52.562;13.414;2023-05-29T02:16:19;12.75;;;4.20;;
44588;SDS011;30298;52.562;13.414;2023-05-29T02:18:46;9.70;;;4.10;;
44588;SDS011;30298;52.562;13.414;2023-05-29T02:21:16;12.50;;;4.80;;
44588;SDS011;30298;52.562;13.414;2023-05-29T02:23:42;11.18;;;4.30;;
44588;SDS011;30298;52.562;13.414;2023-05-29T02:26:07;12.20;;;4.30;;
44588;SDS011;30298;52.562;13.414;2023-05-29T02:28:33;12.85;;;5.85;;
44588;SDS011;30298;52.562;13.414;2023-05-29T02:30:58;10.67;;;4.27;;
44588;SDS011;30298;52.562;13.414;2023-05-29T02:33:24;9.10;;;4.37;;
44588;SDS011;30298;52.562;13.414;2023-05-29T02:35:49;8.20;;;3.97;;
44588;SDS011;30298;52.562;13.414;2023-05-29T02:38:14;8.10;;;4.30;;
44588;SDS011;30298;52.562;13.414;2023-05-29T02:40:40;8.45;;;4.25;;
44588;SDS011;30298;52.562;13.414;2023-05-29T02:43:05;8.50;;;4.05;;
44588;SDS011;30298;52.562;13.414;2023-05-29T02:45:34;8.43;;;4.70;;
44588;SDS011;30298;52.562;13.414;2023-05-29T02:47:59;11.17;;;4.50;;
44588;SDS011;30298;52.562;13.414;2023-05-29T02:50:24;8.60;;;4.00;;
44588;SDS011;30298;52.562;13.414;2023-05-29T02:52:50;7.17;;;4.03;;
44588;SDS011;30298;52.562;13.414;2023-05-29T02:55:15;10.50;;;4.40;;
44588;SDS011;30298;52.562;13.414;2023-05-29T02:57:40;9.20;;;5.03;;
44588;SDS011;30298;52.562;13.414;2023-05-29T03:00:07;10.38;;;4.57;;
44588;SDS011;30298;52.562;13.414;2023-05-29T03:02:33;10.55;;;5.43;;
44588;SDS011;30298;52.562;13.414;2023-05-29T03:04:59;9.77;;;4.47;;
44588;SDS011;30298;52.562;13.414;2023-05-29T03:07:25;11.20;;;5.20;;
44588;SDS011;30298;52.562;13.414;2023-05-29T03:09:51;9.70;;;4.70;;
44588;SDS011;30298;52.562;13.414;2023-05-29T03:12:17;12.82;;;4.90;;
44588;SDS011;30298;52.562;13.414;2023-05-29T03:14:43;9.90;;;4.70;;
44588;SDS011;30298;52.562;13.414;2023-05-29T03:17:09;10.00;;;5.37;;
44588;SDS011;30298;52.562;13.414;2023-05-29T03:19:34;8.30;;;4.63;;
44588;SDS011;30298;52.562;13.414;2023-05-29T03:21:59;8.70;;;4.83;;
44588;SDS011;30298;52.562;13.414;2023-05-29T03:24:24;8.30;;;4.20;;
44588;SDS011;30298;52.562;13.414;2023-05-29T03:26:50;12.35;;;5.03;;
44588;SDS011;30298;52.562;13.414;2023-05-29T03:29:17;8.80;;;4.67;;
44588;SDS011;30298;52.562;13.414;2023-05-29T03:31:42;10.98;;;4.38;;
44588;SDS011;30298;52.562;13.414;2023-05-29T03:34:07;8.93;;;4.40;;
44588;SDS011;30298;52.562;13.414;2023-05-29T03:36:33;8.97;;;4.10;;
44588;SDS011;30298;52.562;13.414;2023-05-29T03:39:01;10.25;;;4.57;;
44588;SDS011;30298;52.562;13.414;2023-05-29T03:41:26;9.23;;;4.50;;
44588;SDS011;30298;52.562;13.414;2023-05-29T03:43:51;13.87;;;4.30;;
44588;SDS011;30298;52.562;13.414;2023-05-29T03:46:17;6.00;;;3.80;;
44588;SDS011;30298;52.562;13.414;2023-05-29T03:48:42;8.37;;;4.07;;
44588;SDS011;30298;52.562;13.414;2023-05-29T03:51:07;7.43;;;4.30;;
44588;SDS011;30298;52.562;13.414;2023-05-29T03:53:32;8.43;;;4.27;;
44588;SDS011;30298;52.562;13.414;2023-05-29T03:55:58;8.93;;;4.50;;
44588;SDS011;30298;52.562;13.414;2023-05-29T03:58:23;8.83;;;4.40;;
44588;SDS011;30298;52.562;13.414;2023-05-29T04:00:48;9.17;;;4.17;;
44588;SDS011;30298;52.562;13.414;2023-05-29T04:03:14;7.63;;;3.67;;
44588;SDS011;30298;52.562;13.414;2023-05-29T04:05:39;8.85;;;4.15;;
44588;SDS011;30298;52.562;13.414;2023-05-29T04:08:05;8.60;;;4.27;;
44588;SDS011;30298;52.562;13.414;2023-05-29T04:10:30;6.72;;;4.22;;
44588;SDS011;30298;52.562;13.414;2023-05-29T04:12:59;8.63;;;4.15;;
44588;SDS011;30298;52.562;13.414;2023-05-29T04:15:27;7.30;;;3.60;;
44588;SDS011;30298;52.562;13.414;2023-05-29T04:17:53;11.95;;;4.43;;
44588;SDS011;30298;52.562;13.414;2023-05-29T04:20:18;9.20;;;4.00;;
44588;SDS011;30298;52.562;13.414;2023-05-29T04:22:44;6.80;;;3.90;;
44588;SDS011;30298;52.562;13.414;2023-05-29T04:25:09;9.05;;;4.93;;
44588;SDS011;30298;52.562;13.414;2023-05-29T04:27:34;6.10;;;3.90;;
44588;SDS011;30298;52.562;13.414;2023-05-29T04:30:06;8.57;;;3.85;;
44588;SDS011;30298;52.562;13.414;2023-05-29T04:32:31;10.00;;;4.75;;
44588;SDS011;30298;52.562;13.414;2023-05-29T04:34:58;8.48;;;4.22;;
44588;SDS011;30298;52.562;13.414;2023-05-29T04:37:27;9.45;;;4.00;;
44588;SDS011;30298;52.562;13.414;2023-05-29T04:39:54;5.57;;;3.80;;
44588;SDS011;30298;52.562;13.414;2023-05-29T04:44:45;9.90;;;4.25;;
44588;SDS011;30298;52.562;13.414;2023-05-29T04:47:11;8.27;;;4.00;;
44588;SDS011;30298;52.562;13.414;2023-05-29T04:49:37;8.10;;;4.22;;
44588;SDS011;30298;52.562;13.414;2023-05-29T04:52:03;8.70;;;4.10;;
44588;SDS011;30298;52.562;13.414;2023-05-29T04:54:30;9.00;;;4.18;;
44588;SDS011;30298;52.562;13.414;2023-05-29T04:56:55;8.37;;;4.53;;
44588;SDS011;30298;52.562;13.414;2023-05-29T04:59:20;9.27;;;4.13;;
44588;SDS011;30298;52.562;13.414;2023-05-29T05:01:45;6.60;;;3.47;;
44588;SDS011;30298;52.562;13.414;2023-05-29T05:04:12;8.98;;;3.88;;
44588;SDS011;30298;52.562;13.414;2023-05-29T05:06:37;8.23;;;4.23;;
44588;SDS011;30298;52.562;13.414;2023-05-29T05:11:29;11.57;;;4.13;;
44588;SDS011;30298;52.562;13.414;2023-05-29T05:13:54;6.38;;;3.40;;
44588;SDS011;30298;52.562;13.414;2023-05-29T05:16:20;10.90;;;3.97;;
44588;SDS011;30298;52.562;13.414;2023-05-29T05:18:45;8.20;;;3.40;;
44588;SDS011;30298;52.562;13.414;2023-05-29T05:21:10;7.57;;;4.63;;
44588;SDS011;30298;52.562;13.414;2023-05-29T05:23:36;7.03;;;3.20;;
44588;SDS011;30298;52.562;13.414;2023-05-29T05:26:01;6.40;;;3.70;;
44588;SDS011;30298;52.562;13.414;2023-05-29T05:28:27;8.63;;;3.73;;
44588;SDS011;30298;52.562;13.414;2023-05-29T05:30:52;6.77;;;3.53;;
44588;SDS011;30298;52.562;13.414;2023-05-29T05:33:18;7.90;;;3.40;;
44588;SDS011;30298;52.562;13.414;2023-05-29T05:35:43;6.80;;;3.90;;
44588;SDS011;30298;52.562;13.414;2023-05-29T05:38:08;9.20;;;4.40;;
44588;SDS011;30298;52.562;13.414;2023-05-29T05:40:34;5.13;;;2.90;;
44588;SDS011;30298;52.562;13.414;2023-05-29T05:43:00;7.07;;;3.22;;
44588;SDS011;30298;52.562;13.414;2023-05-29T05:45:25;7.67;;;2.93;;
44588;SDS011;30298;52.562;13.414;2023-05-29T05:47:50;6.47;;;3.40;;
44588;SDS011;30298;52.562;13.414;2023-05-29T05:50:16;7.47;;;3.20;;
44588;SDS011;30298;52.562;13.414;2023-05-29T05:52:41;6.15;;;3.05;;
44588;SDS011;30298;52.562;13.414;2023-05-29T05:55:07;6.25;;;3.47;;
44588;SDS011;30298;52.562;13.414;2023-05-29T05:57:32;5.32;;;3.40;;
44588;SDS011;30298;52.562;13.414;2023-05-29T06:00:01;4.70;;;3.10;;
44588;SDS011;30298;52.562;13.414;2023-05-29T06:02:27;6.47;;;2.67;;
44588;SDS011;30298;52.562;13.414;2023-05-29T06:04:53;6.23;;;3.50;;
44588;SDS011;30298;52.562;13.414;2023-05-29T06:07:18;6.80;;;4.47;;
44588;SDS011;30298;52.562;13.414;2023-05-29T06:09:43;6.80;;;3.30;;
44588;SDS011;30298;52.562;13.414;2023-05-29T06:12:09;6.78;;;3.28;;
44588;SDS011;30298;52.562;13.414;2023-05-29T06:14:34;8.13;;;3.30;;
44588;SDS011;30298;52.562;13.414;2023-05-29T06:17:00;5.97;;;3.35;;
44588;SDS011;30298;52.562;13.414;2023-05-29T06:19:25;9.70;;;3.20;;
44588;SDS011;30298;52.562;13.414;2023-05-29T06:21:50;6.03;;;2.60;;
44588;SDS011;30298;52.562;13.414;2023-05-29T06:24:15;4.87;;;3.17;;
44588;SDS011;30298;52.562;13.414;2023-05-29T06:26:41;4.90;;;2.80;;
44588;SDS011;30298;52.562;13.414;2023-05-29T06:29:06;6.67;;;3.00;;
44588;SDS011;30298;52.562;13.414;2023-05-29T06:31:31;4.77;;;3.20;;
44588;SDS011;30298;52.562;13.414;2023-05-29T06:36:23;6.13;;;3.00;;
44588;SDS011;30298;52.562;13.414;2023-05-29T06:38:49;7.40;;;3.40;;
44588;SDS011;30298;52.562;13.414;2023-05-29T06:41:14;5.45;;;3.03;;
44588;SDS011;30298;52.562;13.414;2023-05-29T06:43:39;6.13;;;3.10;;
44588;SDS011;30298;52.562;13.414;2023-05-29T06:46:04;5.47;;;3.03;;
44588;SDS011;30298;52.562;13.414;2023-05-29T06:48:33;7.77;;;3.30;;
44588;SDS011;30298;52.562;13.414;2023-05-29T06:50:59;4.22;;;3.17;;
44588;SDS011;30298;52.562;13.414;2023-05-29T06:53:25;4.35;;;3.00;;
44588;SDS011;30298;52.562;13.414;2023-05-29T06:55:50;5.43;;;2.93;;
44588;SDS011;30298;52.562;13.414;2023-05-29T06:58:15;5.40;;;3.20;;
44588;SDS011;30298;52.562;13.414;2023-05-29T07:00:40;9.93;;;5.17;;
44588;SDS011;30298;52.562;13.414;2023-05-29T07:03:06;5.17;;;2.90;;
44588;SDS011;30298;52.562;13.414;2023-05-29T07:05:32;7.10;;;2.75;;
44588;SDS011;30298;52.562;13.414;2023-05-29T07:07:57;3.33;;;2.60;;
44588;SDS011;30298;52.562;13.414;2023-05-29T07:10:22;5.73;;;2.60;;
44588;SDS011;30298;52.562;13.414;2023-05-29T07:12:48;5.57;;;2.53;;
44588;SDS011;30298;52.562;13.414;2023-05-29T07:15:16;7.33;;;2.73;;
44588;SDS011;30298;52.562;13.414;2023-05-29T07:17:41;3.55;;;2.58;;
44588;SDS011;30298;52.562;13.414;2023-05-29T07:20:07;4.28;;;2.67;;
44588;SDS011;30298;52.562;13.414;2023-05-29T07:22:33;6.05;;;2.60;;
44588;SDS011;30298;52.562;13.414;2023-05-29T07:24:58;5.45;;;2.83;;
44588;SDS011;30298;52.562;13.414;2023-05-29T07:27:23;4.03;;;2.70;;
44588;SDS011;30298;52.562;13.414;2023-05-29T07:29:49;6.87;;;2.37;;
44588;SDS011;30298;52.562;13.414;2023-05-29T07:32:18;4.28;;;2.60;;
44588;SDS011;30298;52.562;13.414;2023-05-29T07:34:43;4.95;;;2.65;;
44588;SDS011;30298;52.562;13.414;2023-05-29T07:37:08;5.13;;;2.77;;
44588;SDS011;30298;52.562;13.414;2023-05-29T07:39:34;4.57;;;2.40;;
44588;SDS011;30298;52.562;13.414;2023-05-29T07:42:00;4.90;;;2.65;;
44588;SDS011;30298;52.562;13.414;2023-05-29T07:44:30;8.60;;;2.30;;
44588;SDS011;30298;52.562;13.414;2023-05-29T07:46:55;5.67;;;2.73;;
44588;SDS011;30298;52.562;13.414;2023-05-29T07:49:21;3.60;;;1.90;;
44588;SDS011;30298;52.562;13.414;2023-05-29T07:51:46;4.88;;;2.40;;
44588;SDS011;30298;52.562;13.414;2023-05-29T07:54:11;7.73;;;2.43;;
44588;SDS011;30298;52.562;13.414;2023-05-29T07:56:37;5.38;;;2.60;;
44588;SDS011;30298;52.562;13.414;2023-05-29T07:59:02;4.10;;;2.83;;
44588;SDS011;30298;52.562;13.414;2023-05-29T08:01:28;5.68;;;2.65;;
44588;SDS011;30298;52.562;13.414;2023-05-29T08:03:53;6.10;;;2.80;;
44588;SDS011;30298;52.562;13.414;2023-05-29T08:06:18;6.70;;;3.47;;
44588;SDS011;30298;52.562;13.414;2023-05-29T08:08:44;6.65;;;3.95;;
44588;SDS011;30298;52.562;13.414;2023-05-29T08:11:09;4.15;;;2.53;;
44588;SDS011;30298;52.562;13.414;2023-05-29T08:13:35;4.35;;;2.33;;
44588;SDS011;30298;52.562;13.414;2023-05-29T08:16:01;6.55;;;2.28;;
44588;SDS011;30298;52.562;13.414;2023-05-29T08:18:26;5.47;;;2.53;;
44588;SDS011;30298;52.562;13.414;2023-05-29T08:20:52;4.68;;;3.00;;
44588;SDS011;30298;52.562;13.414;2023-05-29T08:23:20;5.32;;;2.50;;
44588;SDS011;30298;52.562;13.414;2023-05-29T08:25:46;4.43;;;2.55;;
44588;SDS011;30298;52.562;13.414;2023-05-29T08:28:12;4.38;;;2.33;;
44588;SDS011;30298;52.562;13.414;2023-05-29T08:30:38;4.30;;;2.50;;
44588;SDS011;30298;52.562;13.414;2023-05-29T08:33:03;3.83;;;2.45;;
44588;SDS011;30298;52.562;13.414;2023-05-29T08:35:29;3.57;;;2.57;;
44588;SDS011;30298;52.562;13.414;2023-05-29T08:37:54;4.72;;;2.42;;
44588;SDS011;30298;52.562;13.414;2023-05-29T08:40:19;4.37;;;2.50;;
44588;SDS011;30298;52.562;13.414;2023-05-29T08:42:47;3.95;;;2.47;;
44588;SDS011;30298;52.562;13.414;2023-05-29T08:45:13;3.95;;;2.80;;
44588;SDS011;30298;52.562;13.414;2023-05-29T08:47:38;5.28;;;2.50;;
44588;SDS011;30298;52.562;13.414;2023-05-29T08:50:05;5.85;;;2.55;;
44588;SDS011;30298;52.562;13.414;2023-05-29T08:52:32;4.20;;;2.75;;
44588;SDS011;30298;52.562;13.414;2023-05-29T08:55:00;6.30;;;2.65;;
44588;SDS011;30298;52.562;13.414;2023-05-29T08:57:27;5.10;;;2.78;;
44588;SDS011;30298;52.562;13.414;2023-05-29T08:59:53;3.95;;;2.78;;
44588;SDS011;30298;52.562;13.414;2023-05-29T09:02:21;4.22;;;2.60;;
44588;SDS011;30298;52.562;13.414;2023-05-29T09:04:46;6.05;;;2.80;;
44588;SDS011;30298;52.562;13.414;2023-05-29T09:07:15;5.10;;;2.80;;
44588;SDS011;30298;52.562;13.414;2023-05-29T09:12:09;3.60;;;2.55;;
44588;SDS011;30298;52.562;13.414;2023-05-29T09:14:35;6.35;;;3.45;;
44588;SDS011;30298;52.562;13.414;2023-05-29T09:19:26;4.82;;;2.63;;
44588;SDS011;30298;52.562;13.414;2023-05-29T09:21:51;6.70;;;3.00;;
44588;SDS011;30298;52.562;13.414;2023-05-29T09:24:16;4.83;;;3.00;;
44588;SDS011;30298;52.562;13.414;2023-05-29T09:26:51;5.67;;;2.70;;
44588;SDS011;30298;52.562;13.414;2023-05-29T09:29:19;4.22;;;2.65;;
44588;SDS011;30298;52.562;13.414;2023-05-29T09:31:46;3.95;;;2.45;;
44588;SDS011;30298;52.562;13.414;2023-05-29T09:34:12;4.80;;;2.70;;
44588;SDS011;30298;52.562;13.414;2023-05-29T09:36:38;4.72;;;2.67;;
44588;SDS011;30298;52.562;13.414;2023-05-29T09:39:04;4.97;;;2.80;;
44588;SDS011;30298;52.562;13.414;2023-05-29T09:41:29;5.97;;;3.00;;
44588;SDS011;30298;52.562;13.414;2023-05-29T09:44:01;4.60;;;2.53;;
44588;SDS011;30298;52.562;13.414;2023-05-29T09:46:26;5.13;;;2.80;;
44588;SDS011;30298;52.562;13.414;2023-05-29T09:49:03;4.18;;;2.70;;
44588;SDS011;30298;52.562;13.414;2023-05-29T09:51:33;5.00;;;3.42;;
44588;SDS011;30298;52.562;13.414;2023-05-29T09:53:58;4.20;;;2.85;;
44588;SDS011;30298;52.562;13.414;2023-05-29T09:56:26;4.93;;;2.42;;
44588;SDS011;30298;52.562;13.414;2023-05-29T09:58:53;4.20;;;2.58;;
44588;SDS011;30298;52.562;13.414;2023-05-29T10:01:18;5.68;;;2.85;;
44588;SDS011;30298;52.562;13.414;2023-05-29T10:06:15;3.60;;;2.33;;
44588;SDS011;30298;52.562;13.414;2023-05-29T10:08:45;7.65;;;3.90;;
44588;SDS011;30298;52.562;13.414;2023-05-29T10:11:14;6.30;;;3.10;;
44588;SDS011;30298;52.562;13.414;2023-05-29T10:13:42;5.45;;;2.70;;
44588;SDS011;30298;52.562;13.414;2023-05-29T10:16:13;6.30;;;2.75;;
44588;SDS011;30298;52.562;13.414;2023-05-29T10:21:13;4.43;;;2.78;;
44588;SDS011;30298;52.562;13.414;2023-05-29T10:23:39;5.88;;;3.15;;
44588;SDS011;30298;52.562;13.414;2023-05-29T10:26:12;4.55;;;2.58;;
44588;SDS011;30298;52.562;13.414;2023-05-29T10:28:39;6.22;;;2.65;;
44588;SDS011;30298;52.562;13.414;2023-05-29T10:31:09;5.10;;;2.85;;
44588;SDS011;30298;52.562;13.414;2023-05-29T10:33:49;6.20;;;3.00;;
44588;SDS011;30298;52.562;13.414;2023-05-29T10:36:21;5.35;;;2.70;;
44588;SDS011;30298;52.562;13.414;2023-05-29T10:38:49;3.38;;;2.58;;
44588;SDS011;30298;52.562;13.414;2023-05-29T10:41:28;10.15;;;3.00;;
44588;SDS011;30298;52.562;13.414;2023-05-29T10:43:57;3.95;;;2.63;;
44588;SDS011;30298;52.562;13.414;2023-05-29T10:49:11;5.45;;;2.80;;
44588;SDS011;30298;52.562;13.414;2023-05-29T10:51:40;4.82;;;2.70;;
44588;SDS011;30298;52.562;13.414;2023-05-29T10:56:30;6.65;;;2.70;;
44588;SDS011;30298;52.562;13.414;2023-05-29T11:01:22;5.05;;;2.65;;
44588;SDS011;30298;52.562;13.414;2023-05-29T11:03:48;6.60;;;2.78;;
44588;SDS011;30298;52.562;13.414;2023-05-29T11:08:55;6.65;;;2.53;;
44588;SDS011;30298;52.562;13.414;2023-05-29T11:13:52;5.35;;;2.85;;
44588;SDS011;30298;52.562;13.414;2023-05-29T11:18:43;5.10;;;3.08;;
44588;SDS011;30298;52.562;13.414;2023-05-29T11:23:51;9.20;;;3.75;;
44588;SDS011;30298;52.562;13.414;2023-05-29T11:26:23;5.45;;;2.80;;
44588;SDS011;30298;52.562;13.414;2023-05-29T11:28:48;4.45;;;2.83;;
44588;SDS011;30298;52.562;13.414;2023-05-29T11:33:40;6.18;;;3.25;;
44588;SDS011;30298;52.562;13.414;2023-05-29T11:36:08;3.63;;;2.60;;
44588;SDS011;30298;52.562;13.414;2023-05-29T11:38:35;4.32;;;2.78;;
44588;SDS011;30298;52.562;13.414;2023-05-29T11:43:26;4.75;;;2.80;;
44588;SDS011;30298;52.562;13.414;2023-05-29T11:45:51;8.48;;;2.92;;
44588;SDS011;30298;52.562;13.414;2023-05-29T11:48:16;4.13;;;2.63;;
44588;SDS011;30298;52.562;13.414;2023-05-29T11:53:08;5.80;;;2.58;;
44588;SDS011;30298;52.562;13.414;2023-05-29T11:55:34;5.80;;;2.67;;
44588;SDS011;30298;52.562;13.414;2023-05-29T12:00:25;4.65;;;2.60;;
44588;SDS011;30298;52.562;13.414;2023-05-29T12:02:50;5.93;;;2.80;;
44588;SDS011;30298;52.562;13.414;2023-05-29T12:05:16;4.35;;;2.47;;
44588;SDS011;30298;52.562;13.414;2023-05-29T12:07:46;5.45;;;2.80;;
44588;SDS011;30298;52.562;13.414;2023-05-29T12:10:16;5.30;;;3.15;;
44588;SDS011;30298;52.562;13.414;2023-05-29T12:12:41;5.75;;;2.83;;
44588;SDS011;30298;52.562;13.414;2023-05-29T12:15:07;4.10;;;2.63;;
44588;SDS011;30298;52.562;13.414;2023-05-29T12:19:58;4.78;;;2.95;;
44588;SDS011;30298;52.562;13.414;2023-05-29T12:24:49;5.25;;;2.80;;
44588;SDS011;30298;52.562;13.414;2023-05-29T12:29:39;5.03;;;2.97;;
44588;SDS011;30298;52.562;13.414;2023-05-29T12:32:08;5.60;;;2.75;;
44588;SDS011;30298;52.562;13.414;2023-05-29T12:34:43;6.65;;;2.33;;
44588;SDS011;30298;52.562;13.414;2023-05-29T12:37:09;6.63;;;3.33;;
44588;SDS011;30298;52.562;13.414;2023-05-29T12:39:38;6.05;;;2.85;;
44588;SDS011;30298;52.562;13.414;2023-05-29T12:42:04;5.30;;;2.70;;
44588;SDS011;30298;52.562;13.414;2023-05-29T12:44:31;4.32;;;2.30;;
44588;SDS011;30298;52.562;13.414;2023-05-29T12:46:56;5.85;;;2.67;;
44588;SDS011;30298;52.562;13.414;2023-05-29T12:49:21;4.78;;;2.63;;
44588;SDS011;30298;52.562;13.414;2023-05-29T12:51:50;4.05;;;2.20;;
44588;SDS011;30298;52.562;13.414;2023-05-29T12:54:17;4.85;;;2.53;;
44588;SDS011;30298;52.562;13.414;2023-05-29T12:56:43;5.28;;;2.75;;
44588;SDS011;30298;52.562;13.414;2023-05-29T13:01:33;4.33;;;2.43;;
44588;SDS011;30298;52.562;13.414;2023-05-29T13:03:59;5.13;;;2.78;;
44588;SDS011;30298;52.562;13.414;2023-05-29T13:08:50;4.18;;;2.53;;
44588;SDS011;30298;52.562;13.414;2023-05-29T13:11:15;6.50;;;2.63;;
44588;SDS011;30298;52.562;13.414;2023-05-29T13:16:06;6.25;;;2.70;;
44588;SDS011;30298;52.562;13.414;2023-05-29T13:18:31;4.18;;;2.72;;
44588;SDS011;30298;52.562;13.414;2023-05-29T13:20:59;5.32;;;2.70;;
44588;SDS011;30298;52.562;13.414;2023-05-29T13:23:24;5.70;;;3.20;;
44588;SDS011;30298;52.562;13.414;2023-05-29T13:25:49;4.65;;;2.38;;
44588;SDS011;30298;52.562;13.414;2023-05-29T13:28:15;5.95;;;2.30;;
44588;SDS011;30298;52.562;13.414;2023-05-29T13:30:40;5.18;;;2.60;;
44588;SDS011;30298;52.562;13.414;2023-05-29T13:33:06;5.95;;;2.60;;
44588;SDS011;30298;52.562;13.414;2023-05-29T13:35:31;5.28;;;3.10;;
44588;SDS011;30298;52.562;13.414;2023-05-29T13:37:56;4.88;;;2.53;;
44588;SDS011;30298;52.562;13.414;2023-05-29T13:40:22;5.57;;;2.67;;
44588;SDS011;30298;52.562;13.414;2023-05-29T13:42:47;5.55;;;2.90;;
44588;SDS011;30298;52.562;13.414;2023-05-29T13:45:12;4.43;;;2.40;;
44588;SDS011;30298;52.562;13.414;2023-05-29T13:47:39;4.38;;;2.38;;
44588;SDS011;30298;52.562;13.414;2023-05-29T13:50:05;5.93;;;2.92;;
44588;SDS011;30298;52.562;13.414;2023-05-29T13:52:31;5.70;;;2.92;;
44588;SDS011;30298;52.562;13.414;2023-05-29T13:54:56;5.78;;;2.40;;
44588;SDS011;30298;52.562;13.414;2023-05-29T13:57:24;6.00;;;2.50;;
44588;SDS011;30298;52.562;13.414;2023-05-29T13:59:50;4.93;;;2.30;;
44588;SDS011;30298;52.562;13.414;2023-05-29T14:02:18;5.07;;;2.88;;
44588;SDS011;30298;52.562;13.414;2023-05-29T14:04:43;5.18;;;2.97;;
44588;SDS011;30298;52.562;13.414;2023-05-29T14:07:08;5.82;;;2.63;;
44588;SDS011;30298;52.562;13.414;2023-05-29T14:09:34;5.03;;;2.60;;
44588;SDS011;30298;52.562;13.414;2023-05-29T14:14:25;9.35;;;3.05;;
44588;SDS011;30298;52.562;13.414;2023-05-29T14:16:50;6.90;;;2.83;;
44588;SDS011;30298;52.562;13.414;2023-05-29T14:21:41;5.15;;;2.65;;
44588;SDS011;30298;52.562;13.414;2023-05-29T14:24:07;6.05;;;2.95;;
44588;SDS011;30298;52.562;13.414;2023-05-29T14:28:57;6.35;;;2.70;;
44588;SDS011;30298;52.562;13.414;2023-05-29T14:33:48;4.95;;;2.20;;
44588;SDS011;30298;52.562;13.414;2023-05-29T14:36:14;6.82;;;2.50;;
44588;SDS011;30298;52.562;13.414;2023-05-29T14:41:04;4.82;;;2.15;;
44588;SDS011;30298;52.562;13.414;2023-05-29T14:43:31;6.03;;;2.78;;
44588;SDS011;30298;52.562;13.414;2023-05-29T14:48:22;8.07;;;2.67;;
44588;SDS011;30298;52.562;13.414;2023-05-29T14:53:12;4.72;;;2.40;;
44588;SDS011;30298;52.562;13.414;2023-05-29T14:58:04;6.80;;;2.38;;
44588;SDS011;30298;52.562;13.414;2023-05-29T15:02:55;6.38;;;2.30;;
44588;SDS011;30298;52.562;13.414;2023-05-29T15:05:22;7.15;;;2.80;;
44588;SDS011;30298;52.562;13.414;2023-05-29T15:10:13;5.40;;;2.40;;
44588;SDS011;30298;52.562;13.414;2023-05-29T15:15:03;4.68;;;2.10;;
44588;SDS011;30298;52.562;13.414;2023-05-29T15:17:29;5.28;;;2.17;;
44588;SDS011;30298;52.562;13.414;2023-05-29T15:22:21;6.10;;;2.40;;
44588;SDS011;30298;52.562;13.414;2023-05-29T15:27:12;6.80;;;2.38;;
44588;SDS011;30298;52.562;13.414;2023-05-29T15:32:02;6.47;;;2.50;;
44588;SDS011;30298;52.562;13.414;2023-05-29T15:36:53;5.40;;;2.37;;
44588;SDS011;30298;52.562;13.414;2023-05-29T15:41:44;4.93;;;2.10;;
44588;SDS011;30298;52.562;13.414;2023-05-29T15:46:34;5.60;;;2.53;;
44588;SDS011;30298;52.562;13.414;2023-05-29T15:51:25;5.80;;;2.40;;
44588;SDS011;30298;52.562;13.414;2023-05-29T15:53:51;4.85;;;2.08;;
44588;SDS011;30298;52.562;13.414;2023-05-29T15:58:41;8.93;;;2.38;;
44588;SDS011;30298;52.562;13.414;2023-05-29T16:03:32;4.25;;;2.28;;
44588;SDS011;30298;52.562;13.414;2023-05-29T16:08:26;4.50;;;2.58;;
44588;SDS011;30298;52.562;13.414;2023-05-29T16:10:51;8.30;;;2.38;;
44588;SDS011;30298;52.562;13.414;2023-05-29T16:15:42;9.70;;;2.95;;
44588;SDS011;30298;52.562;13.414;2023-05-29T16:18:11;6.05;;;2.78;;
44588;SDS011;30298;52.562;13.414;2023-05-29T16:23:01;8.07;;;3.23;;
44588;SDS011;30298;52.562;13.414;2023-05-29T16:25:27;5.75;;;2.70;;
44588;SDS011;30298;52.562;13.414;2023-05-29T16:30:18;6.97;;;2.70;;
44588;SDS011;30298;52.562;13.414;2023-05-29T16:35:12;8.05;;;2.80;;
44588;SDS011;30298;52.562;13.414;2023-05-29T16:45:30;4.72;;;2.30;;
44588;SDS011;30298;52.562;13.414;2023-05-29T16:50:21;8.65;;;2.63;;
44588;SDS011;30298;52.562;13.414;2023-05-29T16:55:12;5.60;;;2.47;;
44588;SDS011;30298;52.562;13.414;2023-05-29T17:00:07;5.60;;;2.78;;
44588;SDS011;30298;52.562;13.414;2023-05-29T17:02:33;6.38;;;2.40;;